Time;durP1;ratioP1;P1;durP2;ratioP2;P2;SDS_P1;SDS_P2;PMS_P1;PMS_P2;Temp;Humidity;BMP_temperature;BMP_pressure;BME280_temperature;BME280_humidity;BME280_pressure;Samples;Min_cycle;Max_cycle;Signal;HPM_P1;HPM_P2
2022/08/10 00:01:43;;;;;;;3.40;2.10;;;19.30;93.70;;;;;;5075030;28;20449;-70
2022/08/10 00:04:10;;;;;;;2.93;2.03;;;19.40;93.10;;;;;;5074550;28;20491;-71
2022/08/10 00:06:38;;;;;;;3.37;2.10;;;19.30;93.60;;;;;;5074767;28;20982;-71
2022/08/10 00:09:05;;;;;;;2.60;2.10;;;19.20;93.80;;;;;;5074440;28;20473;-71
2022/08/10 00:11:32;;;;;;;4.57;2.27;;;19.20;93.60;;;;;;5074660;28;20465;-71
2022/08/10 00:14:00;;;;;;;4.30;2.30;;;19.10;94.30;;;;;;5074428;28;20452;-71
2022/08/10 00:16:27;;;;;;;3.07;2.30;;;19.10;94.40;;;;;;5074664;28;20453;-71
2022/08/10 00:18:56;;;;;;;3.90;2.90;;;18.90;95.00;;;;;;5074274;28;20452;-71
2022/08/10 00:21:24;;;;;;;3.00;2.10;;;18.90;95.50;;;;;;5074593;28;20456;-71
2022/08/10 00:23:51;;;;;;;3.93;2.60;;;18.90;95.40;;;;;;5074370;28;20997;-71
2022/08/10 00:26:18;;;;;;;2.90;2.07;;;18.90;95.70;;;;;;5074352;28;20988;-70
2022/08/10 00:28:45;;;;;;;2.00;1.87;;;18.90;95.80;;;;;;5074136;28;20461;-70
2022/08/10 00:31:12;;;;;;;3.67;2.37;;;18.90;95.40;;;;;;5074142;28;20453;-70
2022/08/10 00:33:39;;;;;;;3.43;2.60;;;18.90;95.70;;;;;;5074438;28;20461;-71
2022/08/10 00:36:09;;;;;;;2.10;2.00;;;18.80;95.70;;;;;;5074693;28;20452;-71
2022/08/10 00:38:36;;;;;;;3.83;2.60;;;18.90;95.90;;;;;;5074376;28;20977;-71
2022/08/10 00:41:03;;;;;;;3.63;2.37;;;18.70;96.50;;;;;;5074062;28;20461;-71
2022/08/10 00:43:31;;;;;;;3.07;2.33;;;18.70;97.00;;;;;;5074338;28;20456;-71
2022/08/10 00:45:59;;;;;;;5.87;2.67;;;18.70;96.60;;;;;;5074374;28;20453;-70
2022/08/10 00:48:26;;;;;;;3.87;2.60;;;18.80;96.30;;;;;;5074168;28;20817;-71
2022/08/10 00:50:54;;;;;;;3.10;2.30;;;18.80;96.30;;;;;;5055937;28;20495;-71
2022/08/10 00:53:22;;;;;;;3.13;2.53;;;18.80;96.00;;;;;;5074039;28;20453;-71
2022/08/10 00:55:49;;;;;;;3.60;2.43;;;18.90;95.50;;;;;;5073836;28;20946;-71
2022/08/10 00:58:17;;;;;;;2.80;2.10;;;18.80;95.80;;;;;;5073645;28;20480;-71
2022/08/10 01:00:46;;;;;;;2.73;2.10;;;18.80;96.10;;;;;;5073552;28;20453;-71
2022/08/10 01:03:14;;;;;;;4.20;2.40;;;18.70;96.40;;;;;;5039701;28;20457;-71
2022/08/10 01:05:51;;;;;;;2.90;2.13;;;18.60;96.60;;;;;;5073583;28;20457;-71
2022/08/10 01:08:32;;;;;;;4.87;2.33;;;18.30;97.40;;;;;;5073690;28;20464;-71
2022/08/10 01:11:07;;;;;;;4.97;2.93;;;18.40;97.30;;;;;;5072634;28;20492;-71
2022/08/10 01:13:40;;;;;;;2.90;2.37;;;18.30;97.70;;;;;;5073239;28;20456;-71
2022/08/10 01:16:18;;;;;;;5.50;2.30;;;18.30;98.00;;;;;;5038846;28;20493;-71
2022/08/10 01:18:53;;;;;;;3.93;2.40;;;18.30;97.90;;;;;;5073451;28;20527;-71
2022/08/10 01:21:49;;;;;;;3.70;2.40;;;18.20;98.00;;;;;;5055614;28;20453;-70
2022/08/10 01:24:45;;;;;;;3.83;2.37;;;18.30;97.80;;;;;;5073292;28;20526;-71
2022/08/10 01:27:28;;;;;;;2.73;2.10;;;18.30;98.00;;;;;;5072981;28;21054;-70
2022/08/10 01:30:01;;;;;;;2.90;2.57;;;18.00;98.00;;;;;;5072694;28;20484;-71
2022/08/10 01:32:45;;;;;;;3.73;2.50;;;18.00;98.00;;;;;;5055210;28;20532;-71
2022/08/10 01:35:17;;;;;;;3.37;2.30;;;18.00;98.00;;;;;;5073049;28;20460;-70
2022/08/10 01:37:52;;;;;;;3.63;2.07;;;18.00;98.00;;;;;;5072727;28;20457;-71
2022/08/10 01:40:27;;;;;;;2.83;1.97;;;17.90;98.00;;;;;;5072587;28;20502;-70
2022/08/10 01:42:57;;;;;;;3.67;2.27;;;17.90;98.00;;;;;;5072480;28;20461;-71
2022/08/10 01:45:27;;;;;;;4.50;2.03;;;17.90;98.00;;;;;;5072639;28;20822;-70
2022/08/10 01:50:46;;;;;;;3.47;2.37;;;17.80;98.00;;;;;;5072363;28;20614;-70
2022/08/10 01:53:19;;;;;;;2.50;1.97;;;17.60;98.00;;;;;;5072260;28;20540;-70
2022/08/10 01:55:48;;;;;;;3.33;2.40;;;17.60;98.00;;;;;;5072173;28;20962;-71
2022/08/10 01:58:18;;;;;;;4.00;2.57;;;17.90;98.00;;;;;;5072217;28;20469;-71
2022/08/10 02:00:50;;;;;;;3.57;2.30;;;17.90;98.00;;;;;;5072118;28;20453;-72
2022/08/10 02:03:19;;;;;;;3.07;2.50;;;17.80;98.00;;;;;;5072056;28;20475;-71
2022/08/10 02:05:51;;;;;;;3.13;2.20;;;17.80;98.00;;;;;;5071982;28;20865;-71
2022/08/10 02:08:23;;;;;;;4.13;2.70;;;17.60;98.00;;;;;;5072281;28;20464;-71
2022/08/10 02:10:51;;;;;;;3.57;2.30;;;17.50;98.00;;;;;;5071794;28;20485;-71
2022/08/10 02:13:20;;;;;;;3.27;2.37;;;17.50;98.00;;;;;;5071843;28;20449;-71
2022/08/10 02:15:51;;;;;;;2.90;2.37;;;17.50;98.00;;;;;;5071888;28;20461;-71
2022/08/10 02:18:21;;;;;;;3.53;2.43;;;17.50;98.00;;;;;;5071323;28;20460;-71
2022/08/10 02:20:50;;;;;;;3.90;2.67;;;17.50;98.00;;;;;;5071897;28;20831;-71
2022/08/10 02:23:22;;;;;;;4.00;2.47;;;17.50;98.00;;;;;;5071652;28;20489;-71
2022/08/10 02:25:54;;;;;;;2.87;2.20;;;17.30;98.00;;;;;;5071865;28;20460;-71
2022/08/10 02:28:24;;;;;;;3.80;2.33;;;17.30;98.00;;;;;;5071547;28;20457;-70
2022/08/10 02:30:55;;;;;;;3.97;2.73;;;17.40;98.00;;;;;;5071633;28;20488;-71
2022/08/10 02:33:25;;;;;;;3.40;2.20;;;17.50;98.00;;;;;;5071799;28;20456;-71
2022/08/10 02:35:54;;;;;;;2.63;2.00;;;17.60;98.00;;;;;;5053878;28;20518;-71
2022/08/10 02:38:26;;;;;;;3.37;2.40;;;17.50;98.00;;;;;;5071612;28;20453;-71
2022/08/10 02:40:57;;;;;;;4.00;2.40;;;17.40;98.00;;;;;;5071481;28;20453;-71
2022/08/10 02:43:28;;;;;;;2.97;2.07;;;17.30;98.00;;;;;;5071607;28;20461;-71
2022/08/10 02:46:03;;;;;;;3.60;2.40;;;17.30;98.00;;;;;;5071428;28;20460;-70
2022/08/10 02:48:38;;;;;;;4.27;2.43;;;17.30;98.00;;;;;;5071309;28;20452;-71
2022/08/10 02:51:10;;;;;;;2.90;2.23;;;17.20;98.00;;;;;;5071208;28;20487;-71
2022/08/10 02:53:45;;;;;;;3.17;2.10;;;17.20;98.00;;;;;;5071330;28;20834;-71
2022/08/10 02:56:20;;;;;;;3.23;2.30;;;17.10;98.00;;;;;;5071319;28;20464;-71
2022/08/10 02:58:55;;;;;;;3.00;2.00;;;17.10;98.00;;;;;;5071180;28;20462;-71
2022/08/10 03:01:29;;;;;;;2.70;1.97;;;17.20;98.00;;;;;;5071318;28;20479;-71
2022/08/10 03:04:02;;;;;;;2.83;2.20;;;17.30;98.00;;;;;;5070981;28;20969;-69
2022/08/10 03:06:34;;;;;;;3.17;2.10;;;17.10;98.00;;;;;;5071219;28;20461;-71
2022/08/10 03:09:06;;;;;;;3.80;2.30;;;17.10;98.00;;;;;;5071057;28;20553;-71
2022/08/10 03:11:35;;;;;;;2.73;2.30;;;17.00;98.00;;;;;;5070964;28;20546;-71
2022/08/10 03:14:04;;;;;;;3.50;2.30;;;17.00;98.00;;;;;;5071012;28;20471;-70
2022/08/10 03:16:34;;;;;;;4.97;2.50;;;17.00;98.00;;;;;;5071027;28;20453;-71
2022/08/10 03:19:03;;;;;;;6.60;2.60;;;17.10;98.00;;;;;;5070986;28;20459;-71
2022/08/10 03:21:33;;;;;;;2.57;2.30;;;17.20;98.00;;;;;;5071107;28;20457;-70
2022/08/10 03:24:02;;;;;;;3.27;2.43;;;17.10;98.00;;;;;;5053266;28;20463;-71
2022/08/10 03:26:32;;;;;;;3.60;2.60;;;17.10;98.00;;;;;;5071002;28;20951;-70
2022/08/10 03:28:59;;;;;;;3.33;2.20;;;17.00;98.00;;;;;;5070879;28;20603;-71
2022/08/10 03:31:28;;;;;;;3.33;1.93;;;16.90;98.00;;;;;;5070864;28;21059;-71
2022/08/10 03:33:58;;;;;;;3.70;2.60;;;16.80;98.00;;;;;;5072281;28;20468;-71
2022/08/10 03:36:25;;;;;;;4.00;2.67;;;16.70;98.00;;;;;;5075125;28;20456;-71
2022/08/10 03:38:52;;;;;;;3.13;1.97;;;16.70;98.00;;;;;;5074902;28;20457;-71
2022/08/10 03:41:25;;;;;;;2.73;2.30;;;16.60;98.00;;;;;;5075056;28;20974;-71
2022/08/10 03:43:54;;;;;;;2.80;2.40;;;16.50;98.00;;;;;;5074752;28;20452;-71
2022/08/10 03:46:24;;;;;;;3.43;2.07;;;16.50;98.00;;;;;;5074792;28;20457;-71
2022/08/10 03:48:55;;;;;;;3.27;2.47;;;16.50;98.00;;;;;;5056779;28;20546;-71
2022/08/10 03:51:26;;;;;;;3.13;2.17;;;16.40;98.00;;;;;;5074644;28;20480;-71
2022/08/10 03:53:53;;;;;;;3.43;2.30;;;16.50;98.00;;;;;;5074457;28;21020;-70
2022/08/10 03:56:23;;;;;;;5.80;2.33;;;16.60;98.00;;;;;;5074316;28;20452;-71
2022/08/10 03:58:51;;;;;;;4.10;2.80;;;16.60;98.00;;;;;;5074496;28;20813;-70
2022/08/10 04:01:19;;;;;;;2.40;1.97;;;16.50;98.00;;;;;;5074522;28;20464;-71
2022/08/10 04:03:46;;;;;;;3.83;2.00;;;16.40;98.00;;;;;;5072864;28;20457;-70
2022/08/10 04:06:14;;;;;;;4.07;2.37;;;16.50;98.00;;;;;;5074295;28;20966;-71
2022/08/10 04:08:43;;;;;;;3.00;2.27;;;16.30;98.00;;;;;;5074340;28;20457;-70
2022/08/10 04:11:11;;;;;;;3.00;2.13;;;16.30;98.00;;;;;;5074173;28;20495;-71
2022/08/10 04:13:38;;;;;;;2.83;2.10;;;16.20;98.00;;;;;;5074290;28;20456;-71
2022/08/10 04:16:06;;;;;;;3.30;2.30;;;16.20;98.00;;;;;;5074147;28;20449;-71
2022/08/10 04:18:34;;;;;;;2.33;1.90;;;16.30;98.00;;;;;;5074021;28;20461;-70
2022/08/10 04:21:06;;;;;;;3.33;2.27;;;16.20;98.00;;;;;;5074003;28;21009;-70
2022/08/10 04:23:39;;;;;;;3.23;2.53;;;16.20;98.00;;;;;;5074108;28;20456;-70
2022/08/10 04:26:08;;;;;;;3.50;2.20;;;16.20;98.00;;;;;;5074033;28;20453;-71
2022/08/10 04:28:36;;;;;;;3.93;2.37;;;16.40;98.00;;;;;;5073934;28;20958;-71
2022/08/10 04:31:05;;;;;;;4.00;2.47;;;16.50;98.00;;;;;;5073954;28;20492;-70
2022/08/10 04:33:34;;;;;;;4.80;2.83;;;16.50;98.00;;;;;;5073757;28;20820;-70
2022/08/10 04:36:05;;;;;;;5.63;2.37;;;16.40;98.00;;;;;;5074084;28;20453;-70
2022/08/10 04:38:35;;;;;;;3.57;2.57;;;16.30;98.00;;;;;;5073916;28;20457;-70
2022/08/10 04:41:02;;;;;;;3.40;2.30;;;16.40;98.00;;;;;;5073734;28;20460;-70
2022/08/10 04:43:31;;;;;;;3.17;2.40;;;16.50;98.00;;;;;;5073553;28;20485;-71
2022/08/10 04:45:59;;;;;;;3.87;2.40;;;16.50;98.00;;;;;;5072310;28;20821;-70
2022/08/10 04:48:26;;;;;;;4.20;2.60;;;16.60;98.00;;;;;;5073378;28;20453;-71
2022/08/10 04:50:53;;;;;;;2.70;2.10;;;16.60;98.00;;;;;;5073353;28;20484;-70
2022/08/10 04:53:23;;;;;;;6.50;3.57;;;16.50;98.00;;;;;;5073515;28;20789;-71
2022/08/10 04:55:51;;;;;;;4.43;3.10;;;16.50;98.00;;;;;;5073407;28;20554;-70
2022/08/10 04:58:18;;;;;;;5.73;3.83;;;16.50;98.00;;;;;;5073407;28;20824;-70
2022/08/10 05:00:47;;;;;;;5.47;2.67;;;16.50;98.00;;;;;;5055494;28;20456;-71
2022/08/10 05:03:15;;;;;;;4.07;2.50;;;16.50;98.00;;;;;;5073479;28;20849;-71
2022/08/10 05:05:42;;;;;;;3.00;2.40;;;16.40;98.00;;;;;;5073065;28;20463;-71
2022/08/10 05:08:09;;;;;;;7.87;2.47;;;16.40;98.00;;;;;;5073111;28;20453;-70
2022/08/10 05:10:36;;;;;;;2.90;2.10;;;16.40;98.00;;;;;;5072940;28;20519;-70
2022/08/10 05:13:03;;;;;;;3.93;2.50;;;16.30;98.00;;;;;;5073064;28;20464;-70
2022/08/10 05:15:30;;;;;;;2.73;2.30;;;16.40;98.00;;;;;;5072862;28;20457;-70
2022/08/10 05:17:59;;;;;;;3.97;2.47;;;16.40;98.00;;;;;;5055121;28;20449;-71
2022/08/10 05:20:26;;;;;;;4.90;2.30;;;16.50;98.00;;;;;;5072875;28;20457;-71
2022/08/10 05:22:53;;;;;;;3.57;2.40;;;16.50;98.00;;;;;;5073054;28;20471;-70
2022/08/10 05:25:20;;;;;;;2.87;2.20;;;16.60;98.00;;;;;;5072648;28;20455;-70
2022/08/10 05:27:48;;;;;;;3.40;2.37;;;16.90;98.00;;;;;;5072790;28;20457;-70
2022/08/10 05:30:18;;;;;;;2.67;2.20;;;17.20;98.00;;;;;;5072766;28;20813;-71
2022/08/10 05:32:46;;;;;;;3.10;2.40;;;17.40;98.00;;;;;;5072844;28;20457;-70
2022/08/10 05:35:14;;;;;;;2.93;2.50;;;17.50;98.00;;;;;;5072992;28;20933;-70
2022/08/10 05:37:42;;;;;;;3.80;2.37;;;17.50;98.00;;;;;;5072821;28;20506;-70
2022/08/10 05:40:10;;;;;;;3.23;2.17;;;17.50;98.00;;;;;;5072442;28;20459;-70
2022/08/10 05:42:38;;;;;;;3.97;2.70;;;17.60;98.00;;;;;;5072529;28;20518;-70
2022/08/10 05:45:08;;;;;;;4.47;2.70;;;17.70;98.00;;;;;;5072486;28;20464;-70
2022/08/10 05:47:35;;;;;;;4.50;2.80;;;17.80;98.00;;;;;;5072460;28;21253;-70
2022/08/10 05:50:02;;;;;;;3.33;2.27;;;17.90;98.00;;;;;;5072334;28;20552;-70
2022/08/10 05:52:31;;;;;;;4.57;2.47;;;17.90;98.00;;;;;;5072192;28;20485;-70
2022/08/10 05:54:58;;;;;;;4.97;3.00;;;18.00;98.00;;;;;;5072257;28;20792;-70
2022/08/10 05:57:25;;;;;;;3.93;2.80;;;18.20;98.00;;;;;;5071959;28;20453;-70
2022/08/10 05:59:59;;;;;;;3.40;2.53;;;18.20;98.00;;;;;;5072137;28;20453;-70
2022/08/10 06:02:30;;;;;;;5.37;2.90;;;18.10;98.00;;;;;;5072269;28;20456;-70
2022/08/10 06:05:00;;;;;;;4.67;3.10;;;18.10;98.00;;;;;;5071934;28;20467;-69
2022/08/10 06:07:28;;;;;;;4.50;2.73;;;18.10;98.00;;;;;;5071961;28;20445;-69
2022/08/10 06:09:58;;;;;;;5.03;2.67;;;18.10;98.00;;;;;;5071816;28;20464;-71
2022/08/10 06:12:27;;;;;;;3.47;2.50;;;18.10;98.00;;;;;;5071724;28;20820;-68
2022/08/10 06:15:02;;;;;;;3.53;2.53;;;18.20;98.00;;;;;;5071805;28;20465;-69
2022/08/10 06:17:30;;;;;;;3.80;2.80;;;18.40;98.00;;;;;;5071786;28;20460;-71
2022/08/10 06:19:58;;;;;;;5.00;3.17;;;18.50;98.00;;;;;;5071715;28;20449;-70
2022/08/10 06:22:28;;;;;;;3.43;2.40;;;18.60;98.00;;;;;;5071772;28;20445;-69
2022/08/10 06:24:58;;;;;;;4.00;2.70;;;18.70;98.00;;;;;;5071595;28;20456;-71
2022/08/10 06:27:25;;;;;;;3.40;2.40;;;18.90;98.00;;;;;;5071821;28;20827;-69
2022/08/10 06:29:54;;;;;;;2.80;2.37;;;19.10;98.00;;;;;;5071635;28;20459;-69
2022/08/10 06:32:24;;;;;;;3.33;2.93;;;19.30;98.00;;;;;;5071580;28;20481;-71
2022/08/10 06:34:55;;;;;;;5.83;3.00;;;19.40;98.00;;;;;;5071703;28;20457;-72
2022/08/10 06:37:26;;;;;;;4.80;3.27;;;19.40;98.00;;;;;;5071769;28;20461;-69
2022/08/10 06:39:53;;;;;;;3.53;2.37;;;19.50;98.00;;;;;;5071558;28;20482;-71
2022/08/10 06:42:29;;;;;;;4.87;2.60;;;19.60;98.00;;;;;;5071471;28;20467;-70
2022/08/10 06:45:01;;;;;;;4.90;2.93;;;19.80;98.00;;;;;;5071363;28;20456;-71
2022/08/10 06:47:34;;;;;;;4.10;2.83;;;19.80;98.00;;;;;;5071551;28;20465;-70
2022/08/10 06:50:07;;;;;;;4.27;2.53;;;19.90;98.00;;;;;;5071515;28;20481;-69
2022/08/10 06:52:37;;;;;;;4.40;2.87;;;20.10;97.70;;;;;;5071244;28;20472;-70
2022/08/10 06:55:08;;;;;;;5.90;3.00;;;20.20;97.30;;;;;;5071168;28;20452;-70
2022/08/10 06:57:38;;;;;;;4.30;2.70;;;20.40;97.10;;;;;;5071227;28;20461;-69
2022/08/10 07:00:07;;;;;;;3.17;2.40;;;20.50;96.60;;;;;;5071312;28;20519;-72
2022/08/10 07:02:42;;;;;;;4.70;2.60;;;20.60;96.00;;;;;;5071229;28;20485;-70
2022/08/10 07:05:15;;;;;;;5.37;2.97;;;20.70;95.40;;;;;;5071073;28;20456;-70
2022/08/10 07:07:45;;;;;;;2.67;2.17;;;20.90;94.30;;;;;;5070811;28;20479;-70
2022/08/10 07:10:16;;;;;;;3.77;2.17;;;21.00;92.90;;;;;;5070569;28;20460;-69
2022/08/10 07:12:46;;;;;;;2.60;2.10;;;21.20;90.80;;;;;;5071074;28;20578;-72
2022/08/10 07:15:16;;;;;;;2.60;2.20;;;21.40;90.50;;;;;;5067542;28;20461;-71
2022/08/10 07:17:45;;;;;;;3.37;2.33;;;21.60;89.30;;;;;;5068218;28;20468;-71
2022/08/10 07:20:16;;;;;;;3.00;2.33;;;21.70;88.90;;;;;;5067905;28;20963;-71
2022/08/10 07:22:49;;;;;;;3.10;2.30;;;21.90;87.80;;;;;;5068141;28;20475;-71
2022/08/10 07:25:21;;;;;;;2.67;2.07;;;22.10;87.10;;;;;;5068290;28;20468;-69
2022/08/10 07:27:50;;;;;;;7.73;2.60;;;22.20;86.70;;;;;;5068254;28;20510;-69
2022/08/10 07:30:17;;;;;;;3.63;2.50;;;22.40;87.30;;;;;;5068136;28;20456;-70
2022/08/10 07:32:47;;;;;;;3.30;2.40;;;22.50;86.30;;;;;;5068547;28;20524;-71
2022/08/10 07:35:17;;;;;;;3.63;2.37;;;22.60;85.80;;;;;;5051111;28;20977;-70
2022/08/10 07:37:48;;;;;;;3.60;2.33;;;22.80;85.80;;;;;;5068564;28;20472;-72
2022/08/10 07:40:16;;;;;;;3.30;2.30;;;23.00;85.60;;;;;;5068229;28;20552;-71
2022/08/10 07:42:47;;;;;;;2.60;2.27;;;23.10;84.90;;;;;;5068361;28;20468;-70
2022/08/10 07:45:15;;;;;;;3.70;2.50;;;23.30;84.30;;;;;;5050501;28;20464;-70
2022/08/10 07:47:48;;;;;;;2.90;2.47;;;23.40;83.00;;;;;;5068181;28;20453;-70
2022/08/10 07:50:19;;;;;;;4.23;2.60;;;23.50;83.20;;;;;;5058406;28;20457;-69
2022/08/10 07:52:49;;;;;;;2.90;2.30;;;23.60;83.30;;;;;;5067945;28;20523;-70
2022/08/10 07:55:20;;;;;;;3.20;2.40;;;23.70;83.60;;;;;;5067807;28;21937;-69
2022/08/10 07:57:52;;;;;;;4.60;2.33;;;23.80;82.20;;;;;;5067815;28;22263;-71
2022/08/10 08:00:22;;;;;;;4.27;2.40;;;24.00;81.70;;;;;;5067986;28;20480;-70
2022/08/10 08:02:52;;;;;;;3.70;2.47;;;24.10;81.60;;;;;;5067889;28;20461;-71
2022/08/10 08:05:22;;;;;;;4.10;2.60;;;24.20;81.40;;;;;;5067879;28;20837;-73
2022/08/10 08:07:51;;;;;;;3.67;2.37;;;24.30;81.40;;;;;;5068032;28;20484;-70
2022/08/10 08:10:22;;;;;;;2.50;2.10;;;24.50;80.40;;;;;;5067609;28;20469;-70
2022/08/10 08:12:50;;;;;;;3.20;2.40;;;24.70;79.90;;;;;;5067778;28;20666;-71
2022/08/10 08:15:22;;;;;;;3.00;2.03;;;24.80;78.80;;;;;;5067824;28;20457;-69
2022/08/10 08:17:51;;;;;;;3.30;2.13;;;25.00;79.10;;;;;;5067541;28;20456;-70
2022/08/10 08:20:19;;;;;;;3.77;2.47;;;25.20;77.80;;;;;;5069311;28;20459;-70
2022/08/10 08:22:48;;;;;;;3.50;2.17;;;25.30;77.30;;;;;;5072240;28;20464;-72
2022/08/10 08:25:16;;;;;;;3.23;2.27;;;25.50;77.20;;;;;;5074678;28;20457;-71
2022/08/10 08:27:44;;;;;;;2.70;2.23;;;25.60;77.00;;;;;;5074950;28;20552;-71
2022/08/10 08:30:12;;;;;;;3.33;2.20;;;25.70;76.40;;;;;;5074697;28;20949;-71
2022/08/10 08:32:42;;;;;;;2.87;2.10;;;25.80;73.60;;;;;;5074912;28;20484;-68
2022/08/10 08:35:15;;;;;;;3.03;2.20;;;25.90;74.00;;;;;;5074295;28;20476;-70
2022/08/10 08:37:44;;;;;;;3.10;2.43;;;26.00;73.60;;;;;;5075026;28;20514;-72
2022/08/10 08:40:16;;;;;;;2.70;2.10;;;26.10;73.80;;;;;;5074492;28;20927;-58
2022/08/10 08:43:04;;;;;;;3.37;2.13;;;26.20;73.00;;;;;;5074576;28;20460;-73
2022/08/10 08:45:44;;;;;;;2.20;2.00;;;26.30;72.40;;;;;;5074490;28;20832;-72
2022/08/10 08:48:31;;;;;;;2.37;2.20;;;26.50;72.30;;;;;;5074461;28;20468;-72
2022/08/10 08:51:13;;;;;;;3.07;2.13;;;26.60;72.10;;;;;;5074271;28;20464;-74
2022/08/10 08:53:58;;;;;;;3.47;2.33;;;26.60;72.00;;;;;;5074450;28;20510;-71
2022/08/10 08:56:31;;;;;;;3.13;2.30;;;26.70;71.70;;;;;;5074322;28;20696;-74
2022/08/10 08:59:11;;;;;;;2.73;2.37;;;26.70;72.20;;;;;;5073817;28;20522;-72
2022/08/10 09:01:54;;;;;;;3.33;2.33;;;26.90;72.30;;;;;;5074162;28;20455;-72
2022/08/10 09:04:37;;;;;;;3.30;2.27;;;27.00;71.20;;;;;;5090294;28;20456;-72
2022/08/10 09:07:35;;;;;;;2.90;2.03;;;27.20;70.90;;;;;;5093447;28;20456;-71
2022/08/10 09:10:10;;;;;;;2.70;2.10;;;27.40;69.40;;;;;;5093541;28;20468;-72
2022/08/10 09:12:49;;;;;;;3.80;2.20;;;27.50;68.20;;;;;;5093417;28;20887;-74
2022/08/10 09:15:25;;;;;;;3.33;2.13;;;27.60;67.60;;;;;;5093271;28;20493;-71
2022/08/10 09:18:00;;;;;;;3.50;2.03;;;27.70;68.40;;;;;;5092823;28;20460;-72
2022/08/10 09:20:34;;;;;;;2.10;2.00;;;27.80;67.70;;;;;;5092843;28;20560;-73
2022/08/10 09:23:09;;;;;;;5.73;2.40;;;27.90;66.90;;;;;;5083184;28;20456;-73
2022/08/10 09:25:40;;;;;;;2.63;2.20;;;28.00;67.00;;;;;;5289100;22;20422;-74
2022/08/10 09:28:11;;;;;;;1.87;1.73;;;28.10;65.90;;;;;;5084397;28;20444;-74
2022/08/10 09:30:44;;;;;;;3.60;1.80;;;28.20;64.90;;;;;;5093020;28;20451;-71
2022/08/10 09:33:14;;;;;;;2.20;2.00;;;28.30;65.20;;;;;;5092229;28;20483;-74
2022/08/10 09:35:53;;;;;;;2.37;2.00;;;28.40;65.40;;;;;;5092962;28;20492;-71
2022/08/10 09:38:33;;;;;;;2.53;2.00;;;28.40;64.30;;;;;;5093265;28;20443;-70
2022/08/10 09:41:13;;;;;;;2.40;2.07;;;28.50;64.70;;;;;;5074928;28;20462;-71
2022/08/10 09:43:52;;;;;;;2.40;1.90;;;28.40;64.90;;;;;;5092883;28;20953;-71
2022/08/10 09:46:33;;;;;;;2.20;1.93;;;28.50;65.50;;;;;;5092557;28;20459;-72
2022/08/10 09:49:09;;;;;;;2.67;2.10;;;28.60;63.80;;;;;;5092626;28;20456;-70
2022/08/10 09:51:46;;;;;;;3.90;2.20;;;28.70;64.40;;;;;;5092440;28;20459;-72
2022/08/10 09:54:28;;;;;;;2.27;2.10;;;28.80;64.50;;;;;;5092326;28;20459;-71
2022/08/10 09:59:59;;;;;;;2.03;1.93;;;29.00;65.20;;;;;;5092090;28;20670;-67
2022/08/10 10:02:36;;;;;;;3.00;1.90;;;29.20;63.10;;;;;;5092201;28;20448;-67
2022/08/10 10:05:19;;;;;;;3.00;2.27;;;29.10;63.10;;;;;;5092066;28;20459;-67
2022/08/10 10:07:55;;;;;;;2.53;2.00;;;29.30;63.00;;;;;;5091970;28;20965;-70
2022/08/10 10:10:32;;;;;;;2.43;2.10;;;29.50;60.80;;;;;;5092897;28;20840;-69
2022/08/10 10:13:04;;;;;;;2.33;2.00;;;29.50;59.10;;;;;;5076376;28;20797;-71
2022/08/10 10:15:41;;;;;;;2.20;1.83;;;29.60;59.40;;;;;;5092305;28;20865;-71
2022/08/10 10:18:30;;;;;;;1.80;1.70;;;29.70;59.90;;;;;;5092051;28;20463;-70
2022/08/10 10:21:05;;;;;;;2.27;2.07;;;29.80;59.60;;;;;;5091788;28;20463;-69
2022/08/10 10:23:46;;;;;;;2.80;1.90;;;29.80;60.00;;;;;;5091981;28;20458;-71
2022/08/10 10:26:51;;;;;;;2.90;2.07;;;29.90;58.50;;;;;;5091878;28;20750;-71
2022/08/10 10:29:31;;;;;;;2.00;1.80;;;29.90;60.40;;;;;;5092014;28;20969;-71
2022/08/10 10:32:04;;;;;;;2.87;1.97;;;30.10;60.10;;;;;;5091836;28;20976;-71
2022/08/10 10:34:40;;;;;;;2.90;2.10;;;30.30;60.10;;;;;;5091993;28;20460;-70
2022/08/10 10:37:09;;;;;;;2.40;2.00;;;30.40;58.60;;;;;;5092161;28;20460;-72
2022/08/10 10:39:42;;;;;;;2.20;1.90;;;30.50;59.40;;;;;;5091953;28;20448;-70
2022/08/10 10:42:21;;;;;;;3.43;2.40;;;30.60;59.30;;;;;;5091791;28;20452;-70
2022/08/10 10:45:00;;;;;;;5.53;3.20;;;30.70;58.50;;;;;;5091068;28;20463;-73
2022/08/10 10:47:45;;;;;;;3.37;2.30;;;30.90;58.70;;;;;;5091842;28;20464;-69
2022/08/10 10:50:16;;;;;;;3.33;2.13;;;31.00;58.30;;;;;;5075463;28;20456;-71
2022/08/10 10:52:51;;;;;;;2.53;2.10;;;31.30;58.50;;;;;;5091420;28;20476;-69
2022/08/10 10:55:30;;;;;;;2.87;2.37;;;31.20;58.30;;;;;;5091680;28;20466;-70
2022/08/10 10:58:04;;;;;;;3.10;2.50;;;31.20;58.30;;;;;;5073429;28;20510;-70
2022/08/10 11:00:40;;;;;;;3.30;2.33;;;31.20;58.30;;;;;;5091545;28;20958;-70
2022/08/10 11:03:23;;;;;;;3.23;2.37;;;31.30;57.80;;;;;;5091500;28;20991;-70
2022/08/10 11:06:04;;;;;;;2.50;2.07;;;31.40;57.90;;;;;;5091432;28;20934;-71
2022/08/10 11:08:35;;;;;;;3.40;2.50;;;31.50;58.40;;;;;;5091816;28;20455;-71
2022/08/10 11:11:09;;;;;;;3.80;2.50;;;31.70;57.70;;;;;;5091506;28;20464;-70
2022/08/10 11:13:42;;;;;;;3.13;2.20;;;31.90;57.40;;;;;;5091305;28;21039;-71
2022/08/10 11:16:16;;;;;;;2.53;2.17;;;32.10;57.70;;;;;;5091394;28;20460;-72
2022/08/10 11:18:57;;;;;;;3.40;2.13;;;32.30;56.10;;;;;;5074154;28;20482;-70
2022/08/10 11:21:41;;;;;;;2.33;2.13;;;32.30;56.40;;;;;;5091318;28;20460;-69
2022/08/10 11:24:14;;;;;;;2.53;2.20;;;32.30;57.00;;;;;;5091121;28;20456;-72
2022/08/10 11:26:49;;;;;;;2.40;2.23;;;32.40;56.80;;;;;;5091010;28;21102;-71
2022/08/10 11:29:24;;;;;;;2.13;1.87;;;32.60;56.90;;;;;;5090825;28;20450;-71
2022/08/10 11:32:00;;;;;;;3.30;2.40;;;32.80;56.30;;;;;;5091207;28;20462;-71
2022/08/10 11:34:36;;;;;;;2.90;2.13;;;33.00;55.30;;;;;;5091629;28;20849;-70
2022/08/10 11:37:14;;;;;;;2.37;2.03;;;33.20;55.40;;;;;;5092447;28;20455;-72
2022/08/10 11:39:48;;;;;;;2.23;2.03;;;33.30;55.20;;;;;;5092552;28;20814;-74
2022/08/10 11:42:30;;;;;;;2.10;1.80;;;33.50;54.00;;;;;;5092273;28;20456;-73
2022/08/10 11:45:02;;;;;;;2.70;2.00;;;33.50;53.20;;;;;;5091220;28;20444;-72
2022/08/10 11:47:37;;;;;;;3.07;2.10;;;33.50;53.30;;;;;;5091106;28;20456;-73
2022/08/10 11:50:13;;;;;;;2.93;2.30;;;33.60;53.50;;;;;;5091976;28;20824;-73
2022/08/10 11:52:49;;;;;;;2.53;2.00;;;33.80;53.00;;;;;;5091714;28;20884;-73
2022/08/10 11:55:20;;;;;;;2.27;2.07;;;33.90;53.20;;;;;;5093387;28;20455;-74
2022/08/10 11:57:52;;;;;;;2.57;2.10;;;34.00;53.30;;;;;;5094196;28;20456;-73
2022/08/10 12:00:19;;;;;;;2.87;2.30;;;34.20;53.50;;;;;;5094870;28;20448;-76
2022/08/10 12:02:50;;;;;;;2.90;2.30;;;34.40;53.00;;;;;;5094853;28;20455;-74
2022/08/10 12:05:21;;;;;;;3.40;2.33;;;34.60;51.70;;;;;;5094692;28;20972;-74
2022/08/10 12:07:52;;;;;;;2.53;2.10;;;34.70;51.80;;;;;;5094779;28;20834;-73
2022/08/10 12:10:22;;;;;;;2.20;2.00;;;34.70;51.40;;;;;;5094576;28;20455;-74
2022/08/10 12:12:59;;;;;;;2.40;1.93;;;34.60;52.20;;;;;;5094648;28;20989;-73
2022/08/10 12:15:34;;;;;;;2.90;2.20;;;34.80;52.40;;;;;;5094703;28;20463;-73
2022/08/10 12:18:07;;;;;;;2.87;2.20;;;35.00;51.60;;;;;;5095111;28;20997;-73
2022/08/10 12:20:37;;;;;;;2.93;2.30;;;35.30;51.70;;;;;;5094501;28;20474;-74
2022/08/10 12:23:11;;;;;;;2.70;2.10;;;35.20;50.50;;;;;;5094456;28;20455;-73
2022/08/10 12:25:44;;;;;;;4.03;2.50;;;35.10;50.20;;;;;;5094292;28;20462;-74
2022/08/10 12:28:17;;;;;;;2.33;2.03;;;35.20;50.20;;;;;;5094257;28;20937;-73
2022/08/10 12:30:50;;;;;;;2.70;2.27;;;35.10;50.20;;;;;;5094212;28;20458;-74
2022/08/10 12:33:22;;;;;;;2.50;2.10;;;35.30;50.00;;;;;;5094188;28;20487;-73
2022/08/10 12:36:02;;;;;;;2.60;2.13;;;35.20;49.20;;;;;;5094597;28;20464;-73
2022/08/10 12:38:39;;;;;;;1.90;1.90;;;35.30;50.60;;;;;;5094380;28;20466;-73
2022/08/10 12:41:13;;;;;;;2.37;1.93;;;35.50;49.50;;;;;;5094348;28;20833;-73
2022/08/10 12:43:49;;;;;;;3.10;2.40;;;35.30;49.40;;;;;;5094246;28;20914;-74
2022/08/10 12:46:28;;;;;;;2.73;2.13;;;35.30;49.40;;;;;;5094270;28;20462;-75
2022/08/10 12:49:06;;;;;;;2.60;2.00;;;35.50;49.90;;;;;;5093956;28;20448;-74
2022/08/10 12:51:34;;;;;;;2.00;1.93;;;35.70;49.60;;;;;;5093921;28;20529;-73
2022/08/10 12:54:09;;;;;;;2.67;2.20;;;35.80;48.90;;;;;;5076157;28;20913;-74
2022/08/10 12:56:40;;;;;;;3.60;2.10;;;35.60;48.80;;;;;;5093903;28;20455;-73
2022/08/10 12:59:12;;;;;;;2.03;1.83;;;35.70;49.10;;;;;;5093627;28;20463;-73
2022/08/10 13:01:40;;;;;;;2.40;2.00;;;35.80;49.70;;;;;;5093742;28;20456;-74
2022/08/10 13:04:12;;;;;;;2.03;1.80;;;35.90;49.20;;;;;;5075860;28;20452;-73
2022/08/10 13:06:44;;;;;;;2.70;2.10;;;36.10;48.80;;;;;;5092646;28;20464;-75
2022/08/10 13:09:12;;;;;;;2.40;2.17;;;35.90;47.90;;;;;;5093460;28;20521;-73
2022/08/10 13:11:46;;;;;;;3.03;2.20;;;35.80;48.30;;;;;;5093511;28;20493;-74
2022/08/10 13:14:18;;;;;;;1.90;1.90;;;35.90;47.90;;;;;;5093377;28;20488;-75
2022/08/10 13:16:48;;;;;;;3.40;2.20;;;35.80;48.60;;;;;;5093365;28;20451;-74
2022/08/10 13:19:21;;;;;;;2.60;2.30;;;35.90;47.90;;;;;;5093282;28;20455;-73